createdAt,value
2023-03-23T15:57:55.279Z,14.40
2023-03-23T16:00:24.181Z,14.39
2023-03-23T16:03:02.001Z,14.36
2023-03-23T16:05:29.825Z,14.35
2023-03-23T16:07:56.414Z,14.38
2023-03-23T16:10:24.721Z,14.42
2023-03-23T16:12:51.275Z,14.41
2023-03-23T16:15:18.964Z,14.39
2023-03-23T16:17:46.610Z,14.35
2023-03-23T16:20:20.303Z,14.27
2023-03-23T16:22:47.696Z,14.24
2023-03-23T16:25:15.247Z,14.16
2023-03-23T16:27:42.972Z,14.05
2023-03-23T16:30:15.924Z,14.11
2023-03-23T16:32:43.406Z,14.09
2023-03-23T16:35:10.897Z,14.07
2023-03-23T16:37:37.575Z,13.99
2023-03-23T16:40:05.563Z,14.04
2023-03-23T16:42:32.117Z,14.01
2023-03-23T16:44:58.884Z,13.93
2023-03-23T16:47:25.539Z,13.89
2023-03-23T16:49:52.813Z,13.79
2023-03-23T16:52:19.948Z,13.74
2023-03-23T16:54:46.446Z,13.64
2023-03-23T16:57:12.976Z,13.57
2023-03-23T16:59:39.938Z,13.51
2023-03-23T17:02:07.073Z,13.45
2023-03-23T17:04:34.282Z,13.39
2023-03-23T17:07:00.933Z,13.30
2023-03-23T17:09:28.208Z,13.23
2023-03-23T17:11:55.225Z,13.13
2023-03-23T17:14:21.919Z,13.08
2023-03-23T17:16:48.352Z,13.01
2023-03-23T17:19:15.269Z,12.91
2023-03-23T17:21:42.155Z,12.83
2023-03-23T17:24:09.039Z,12.76
2023-03-23T17:26:36.653Z,12.64
2023-03-23T17:29:04.131Z,12.63
2023-03-23T17:31:30.796Z,12.61
2023-03-23T17:33:57.992Z,12.51
2023-03-23T17:36:24.682Z,12.48
2023-03-23T17:38:51.159Z,12.45
2023-03-23T17:41:20.943Z,12.33
2023-03-23T17:43:47.780Z,12.26
2023-03-23T17:46:14.784Z,12.29
2023-03-23T17:48:41.655Z,12.25
2023-03-23T17:51:09.797Z,12.27
2023-03-23T17:53:36.688Z,12.30
2023-03-23T17:56:04.927Z,12.36
2023-03-23T17:58:32.084Z,12.33
2023-03-23T18:00:58.608Z,12.31
2023-03-23T18:03:26.520Z,12.31
2023-03-23T18:05:59.340Z,12.24
2023-03-23T18:08:26.801Z,12.30
2023-03-23T18:10:55.428Z,12.35
2023-03-23T18:13:22.563Z,12.32
2023-03-23T18:15:49.475Z,12.28
2023-03-23T18:18:16.218Z,12.25
2023-03-23T18:20:42.837Z,12.21
2023-03-23T18:23:09.588Z,12.15
2023-03-23T18:25:37.420Z,12.17
2023-03-23T18:28:05.045Z,12.16
2023-03-23T18:30:34.878Z,12.20
2023-03-23T18:33:01.616Z,12.12
2023-03-23T18:35:28.535Z,12.18
2023-03-23T18:37:55.542Z,12.17
2023-03-23T18:40:22.168Z,12.12
2023-03-23T18:42:49.133Z,12.15
2023-03-23T18:45:16.012Z,12.15
2023-03-23T18:47:43.414Z,12.25
2023-03-23T18:50:11.568Z,12.26
2023-03-23T18:52:38.569Z,12.26
2023-03-23T18:55:06.297Z,12.18
2023-03-23T18:57:32.752Z,12.22
2023-03-23T18:59:59.331Z,12.21
2023-03-23T19:02:25.838Z,12.21
2023-03-23T19:04:52.270Z,12.25
2023-03-23T19:07:19.865Z,12.25
2023-03-23T19:09:47.385Z,12.24
2023-03-23T19:12:16.179Z,12.23
2023-03-23T19:14:43.935Z,12.24
2023-03-23T19:17:11.069Z,12.17
2023-03-23T19:19:38.537Z,12.24
2023-03-23T19:22:06.438Z,12.21
2023-03-23T19:24:33.381Z,12.11
2023-03-23T19:27:00.184Z,12.07
2023-03-23T19:29:27.540Z,12.08
2023-03-23T19:31:57.700Z,12.02
2023-03-23T19:34:25.524Z,12.00
2023-03-23T19:36:56.334Z,11.97
2023-03-23T19:39:30.860Z,11.99
2023-03-23T19:41:58.592Z,11.92
2023-03-23T19:44:25.568Z,11.99
2023-03-23T19:46:53.970Z,12.01
2023-03-23T19:49:20.904Z,11.92
2023-03-23T19:51:47.370Z,11.94
2023-03-23T19:54:13.899Z,11.92
2023-03-23T19:56:40.764Z,11.90
2023-03-23T19:59:10.571Z,11.81
2023-03-23T20:01:37.744Z,11.79
2023-03-23T20:04:05.099Z,11.80
2023-03-23T20:06:31.999Z,11.75
2023-03-23T20:09:00.230Z,11.67
2023-03-23T20:11:28.013Z,11.76
2023-03-23T20:13:55.237Z,11.67
2023-03-23T20:16:21.873Z,11.64
2023-03-23T20:18:49.940Z,11.58
2023-03-23T20:21:20.432Z,11.59
2023-03-23T20:23:46.909Z,11.57
2023-03-23T20:26:21.145Z,11.61
2023-03-23T20:28:48.254Z,11.51
2023-03-23T20:31:23.382Z,11.51
2023-03-23T20:33:59.822Z,11.46
2023-03-23T20:36:36.375Z,11.49
2023-03-23T20:39:08.104Z,11.52
2023-03-23T20:41:41.965Z,11.50
2023-03-23T20:44:13.978Z,11.59
2023-03-23T20:46:42.725Z,11.65
2023-03-23T20:49:10.027Z,11.66
2023-03-23T20:51:37.277Z,11.69
2023-03-23T20:54:04.610Z,11.57
2023-03-23T20:56:31.840Z,11.56
2023-03-23T20:58:58.874Z,11.58
2023-03-23T21:01:26.195Z,11.61
2023-03-23T21:03:54.377Z,11.64
2023-03-23T21:06:22.149Z,11.70
2023-03-23T21:08:49.043Z,11.72
2023-03-23T21:11:19.031Z,11.69
2023-03-23T21:13:46.656Z,11.70
2023-03-23T21:16:13.095Z,11.72
2023-03-23T21:18:39.565Z,11.70
2023-03-23T21:21:09.268Z,11.74
2023-03-23T21:23:36.057Z,11.70
2023-03-23T21:26:08.083Z,11.76
2023-03-23T21:28:35.808Z,11.75
2023-03-23T21:31:05.692Z,11.72
2023-03-23T21:33:32.072Z,11.85
2023-03-23T21:36:00.505Z,11.87
2023-03-23T21:38:28.135Z,11.85
2023-03-23T21:40:56.460Z,11.87
2023-03-23T21:43:28.257Z,11.98
2023-03-23T21:45:56.742Z,12.00
2023-03-23T21:48:25.167Z,11.90
2023-03-23T21:50:52.027Z,11.86
2023-03-23T21:53:19.165Z,11.86
2023-03-23T21:55:53.065Z,11.94
2023-03-23T21:58:23.908Z,11.92
2023-03-23T22:00:53.948Z,11.94
2023-03-23T22:03:24.425Z,11.86
2023-03-23T22:05:54.478Z,11.92
2023-03-23T22:08:22.784Z,11.85
2023-03-23T22:11:01.177Z,11.77
2023-03-23T22:13:33.106Z,11.73
2023-03-23T22:16:02.786Z,11.82
2023-03-23T22:18:29.708Z,11.79
2023-03-23T22:20:59.238Z,11.87
2023-03-23T22:23:26.656Z,11.90
2023-03-23T22:25:53.934Z,11.99
2023-03-23T22:28:20.447Z,12.01
2023-03-23T22:30:47.864Z,12.00
2023-03-23T22:33:17.820Z,11.95
2023-03-23T22:35:46.121Z,12.05
2023-03-23T22:38:14.022Z,12.05
2023-03-23T22:40:42.386Z,12.03
2023-03-23T22:43:09.147Z,12.08
2023-03-23T22:45:35.800Z,12.09
2023-03-23T22:48:05.121Z,12.11
2023-03-23T22:50:32.224Z,12.11
2023-03-23T22:52:58.945Z,12.19
2023-03-23T22:55:26.853Z,12.20
2023-03-23T22:57:53.351Z,12.17
2023-03-23T23:00:20.986Z,12.10
2023-03-23T23:02:49.396Z,12.11
2023-03-23T23:05:16.377Z,12.10
2023-03-23T23:07:43.265Z,12.15
2023-03-23T23:10:10.267Z,12.10
2023-03-23T23:12:37.114Z,12.13
2023-03-23T23:15:07.154Z,12.10
2023-03-23T23:17:34.761Z,12.13
2023-03-23T23:20:05.380Z,12.07
2023-03-23T23:22:31.991Z,12.11
2023-03-23T23:24:58.784Z,12.10
2023-03-23T23:27:25.329Z,12.13
2023-03-23T23:29:53.382Z,12.06
2023-03-23T23:32:20.617Z,11.98
2023-03-23T23:34:47.471Z,11.98
2023-03-23T23:37:13.996Z,11.94
2023-03-23T23:39:41.638Z,11.92
2023-03-23T23:42:08.300Z,11.87
2023-03-23T23:44:36.069Z,12.00
2023-03-23T23:47:03.280Z,12.00
2023-03-23T23:49:31.743Z,12.07
2023-03-23T23:51:58.588Z,12.01
2023-03-23T23:54:30.175Z,12.01
2023-03-23T23:56:58.618Z,12.10
2023-03-23T23:59:25.919Z,12.01
